Time;durP1;ratioP1;P1;durP2;ratioP2;P2;SDS_P1;SDS_P2;PMS_P1;PMS_P2;Temp;Humidity;BMP_temperature;BMP_pressure;BME280_temperature;BME280_humidity;BME280_pressure;Samples;Min_cycle;Max_cycle;Signal;HPM_P1;HPM_P2
2024/01/08 00:00:06;;;;;;;1.95;1.45;;;16.70;66.50;;;;;;5022740;28;20132;-90
2024/01/08 00:02:31;;;;;;;1.40;1.40;;;16.70;66.40;;;;;;5006753;28;20046;-90
2024/01/08 00:04:57;;;;;;;1.80;1.70;;;16.80;66.50;;;;;;5021854;28;20041;-89
2024/01/08 00:07:23;;;;;;;1.35;1.25;;;16.80;66.40;;;;;;5021210;28;20120;-88
2024/01/08 00:09:48;;;;;;;1.83;1.73;;;16.80;66.30;;;;;;5021838;28;20050;-88
2024/01/08 00:12:14;;;;;;;1.40;1.30;;;16.80;66.30;;;;;;4988476;28;20091;-88
2024/01/08 00:14:39;;;;;;;1.42;1.33;;;16.80;66.20;;;;;;5010181;28;20533;-89
2024/01/08 00:17:05;;;;;;;1.15;1.15;;;16.80;66.10;;;;;;5026239;28;20111;-90
2024/01/08 00:19:31;;;;;;;1.60;1.40;;;16.90;66.20;;;;;;5025620;28;20042;-90
2024/01/08 00:21:57;;;;;;;1.40;1.30;;;16.90;66.10;;;;;;5024970;28;20042;-88
2024/01/08 00:24:22;;;;;;;1.52;1.42;;;16.90;66.10;;;;;;4993652;28;20046;-87
2024/01/08 00:26:48;;;;;;;2.33;1.50;;;16.80;65.90;;;;;;5002440;28;20053;-87
2024/01/08 00:29:13;;;;;;;1.13;1.13;;;16.90;66.00;;;;;;4973640;28;20054;-84
2024/01/08 00:31:39;;;;;;;1.38;1.27;;;16.80;66.00;;;;;;5002745;28;20737;-86
2024/01/08 00:34:05;;;;;;;1.15;1.15;;;16.80;66.30;;;;;;5014541;28;20076;-83
2024/01/08 00:36:31;;;;;;;1.40;1.30;;;16.80;66.00;;;;;;5007536;28;20046;-84
2024/01/08 00:38:57;;;;;;;1.20;1.10;;;16.80;66.10;;;;;;5009406;28;20037;-85
2024/01/08 00:41:22;;;;;;;1.30;1.20;;;16.80;66.10;;;;;;5022521;28;20056;-85
2024/01/08 00:43:51;;;;;;;1.23;1.13;;;16.80;66.30;;;;;;5007927;28;20136;-85
2024/01/08 00:46:17;;;;;;;1.00;0.90;;;16.80;66.20;;;;;;5027388;28;20187;-84
2024/01/08 00:48:43;;;;;;;1.13;1.10;;;16.80;66.30;;;;;;5008330;28;20584;-85
2024/01/08 00:51:09;;;;;;;1.20;1.10;;;16.80;66.30;;;;;;4990553;28;20061;-84
2024/01/08 00:53:34;;;;;;;1.10;1.10;;;16.80;66.30;;;;;;5021458;28;20080;-85
2024/01/08 00:56:00;;;;;;;0.90;0.90;;;16.70;66.50;;;;;;5008766;28;20134;-85
2024/01/08 00:58:26;;;;;;;1.10;1.10;;;16.70;66.30;;;;;;5026926;28;20057;-84
2024/01/08 01:00:51;;;;;;;1.20;1.10;;;16.70;66.40;;;;;;4976267;28;20131;-85
2024/01/08 01:03:17;;;;;;;1.00;1.00;;;16.70;66.40;;;;;;4987259;28;20045;-85
2024/01/08 01:05:42;;;;;;;0.98;0.98;;;16.70;66.40;;;;;;5018259;28;20041;-84
2024/01/08 01:08:08;;;;;;;1.10;1.10;;;16.70;66.50;;;;;;4974816;28;20564;-84
2024/01/08 01:10:34;;;;;;;1.10;1.10;;;16.70;66.50;;;;;;5018483;28;20049;-84
2024/01/08 01:12:59;;;;;;;1.23;1.20;;;16.60;66.50;;;;;;5023128;28;20037;-84
2024/01/08 01:15:25;;;;;;;1.10;1.08;;;16.70;66.60;;;;;;5022081;28;20123;-84
2024/01/08 01:17:50;;;;;;;1.08;0.98;;;16.60;66.50;;;;;;4991910;28;20137;-83
2024/01/08 01:20:16;;;;;;;1.10;1.05;;;16.60;66.50;;;;;;5021908;28;20046;-83
2024/01/08 01:22:42;;;;;;;1.13;0.98;;;16.60;66.60;;;;;;5007204;28;20087;-83
2024/01/08 01:25:07;;;;;;;1.27;1.13;;;16.60;66.60;;;;;;5005182;28;20042;-83
2024/01/08 01:27:33;;;;;;;0.82;0.82;;;16.60;66.70;;;;;;5020797;28;20042;-83
2024/01/08 01:29:59;;;;;;;1.10;1.10;;;16.60;66.60;;;;;;4973054;28;20041;-83
2024/01/08 01:32:24;;;;;;;1.63;1.15;;;16.60;66.70;;;;;;5014887;28;20079;-84
2024/01/08 01:34:50;;;;;;;0.80;0.80;;;16.50;66.70;;;;;;5004995;28;20056;-83
2024/01/08 01:37:15;;;;;;;0.93;0.90;;;16.50;66.70;;;;;;5037986;28;20107;-83
2024/01/08 01:39:41;;;;;;;0.85;0.85;;;16.50;66.70;;;;;;4989447;28;20669;-84
2024/01/08 01:42:06;;;;;;;0.93;0.90;;;16.50;66.70;;;;;;5010823;28;20407;-84
2024/01/08 01:44:32;;;;;;;1.00;0.90;;;16.50;66.80;;;;;;5022776;28;20069;-83
2024/01/08 01:46:58;;;;;;;0.90;0.80;;;16.50;66.90;;;;;;5022395;28;20037;-84
2024/01/08 01:49:23;;;;;;;2.05;0.90;;;16.50;66.80;;;;;;4993008;28;20077;-84
2024/01/08 01:51:49;;;;;;;1.80;1.05;;;16.50;66.90;;;;;;5000375;28;20527;-83
2024/01/08 01:54:16;;;;;;;0.70;0.70;;;16.40;66.80;;;;;;4973210;28;20111;-83
2024/01/08 01:56:46;;;;;;;1.00;1.00;;;16.40;66.80;;;;;;5023068;28;20099;-83
2024/01/08 01:59:11;;;;;;;0.80;0.80;;;16.40;66.90;;;;;;5020353;28;20045;-83
2024/01/08 02:01:37;;;;;;;0.80;0.80;;;16.40;66.90;;;;;;5022798;28;20103;-83
2024/01/08 02:04:03;;;;;;;1.10;1.00;;;16.40;66.90;;;;;;5024238;28;20073;-83
2024/01/08 02:06:29;;;;;;;0.95;0.80;;;16.40;66.90;;;;;;4979591;28;20045;-83
2024/01/08 02:08:54;;;;;;;0.90;0.90;;;16.40;66.90;;;;;;4994673;28;20050;-83
2024/01/08 02:11:20;;;;;;;0.82;0.82;;;16.30;67.00;;;;;;4984368;28;20052;-84
2024/01/08 02:13:46;;;;;;;1.20;1.10;;;16.30;67.00;;;;;;5022100;28;20095;-83
2024/01/08 02:16:12;;;;;;;0.65;0.65;;;16.30;67.00;;;;;;5016351;28;20120;-83
2024/01/08 02:18:38;;;;;;;1.60;0.98;;;16.30;67.00;;;;;;5007744;28;20167;-82
2024/01/08 02:21:03;;;;;;;0.80;0.80;;;16.30;67.00;;;;;;5004839;28;20092;-84
2024/01/08 02:23:29;;;;;;;1.60;0.90;;;16.30;67.10;;;;;;5033555;28;20057;-84
2024/01/08 02:25:55;;;;;;;0.90;0.88;;;16.30;67.10;;;;;;5021535;28;20094;-85
2024/01/08 02:28:20;;;;;;;2.03;0.90;;;16.30;67.10;;;;;;4974055;28;20498;-85
2024/01/08 02:30:46;;;;;;;1.20;1.10;;;16.30;67.10;;;;;;4977256;28;20050;-84
2024/01/08 02:33:11;;;;;;;1.10;0.85;;;16.20;67.10;;;;;;4986309;28;20448;-83
2024/01/08 02:35:37;;;;;;;0.93;0.93;;;16.20;67.10;;;;;;5001575;28;20537;-84
2024/01/08 02:38:03;;;;;;;0.95;0.95;;;16.20;67.20;;;;;;4983483;28;20076;-84
2024/01/08 02:40:28;;;;;;;1.08;1.08;;;16.20;67.20;;;;;;5022144;28;20042;-84
2024/01/08 02:42:54;;;;;;;1.10;1.00;;;16.20;67.20;;;;;;5023154;28;20037;-85
2024/01/08 02:45:19;;;;;;;0.95;0.90;;;16.20;68.10;;;;;;4986536;28;20030;-85
2024/01/08 02:47:45;;;;;;;0.85;0.85;;;16.20;67.30;;;;;;5018626;28;20412;-85
2024/01/08 02:50:11;;;;;;;1.00;0.90;;;16.20;67.30;;;;;;5020510;28;20045;-84
2024/01/08 02:52:36;;;;;;;0.90;0.90;;;16.20;67.30;;;;;;5020788;28;20148;-85
2024/01/08 02:55:02;;;;;;;1.30;1.20;;;16.10;67.30;;;;;;5022268;28;20368;-85
2024/01/08 02:57:28;;;;;;;0.82;0.82;;;16.10;67.30;;;;;;5002635;28;20437;-85
2024/01/08 02:59:57;;;;;;;0.90;0.90;;;16.10;67.30;;;;;;5021245;28;20049;-85
2024/01/08 03:02:24;;;;;;;0.90;0.90;;;16.10;67.30;;;;;;4989554;28;20038;-84
2024/01/08 03:04:49;;;;;;;0.70;0.70;;;16.10;67.30;;;;;;5021850;28;20300;-83
2024/01/08 03:07:20;;;;;;;1.17;1.10;;;16.10;67.40;;;;;;5007816;28;20872;-83
2024/01/08 03:09:49;;;;;;;1.10;1.10;;;16.10;67.30;;;;;;4992660;28;20041;-84
2024/01/08 03:12:15;;;;;;;0.98;0.98;;;16.10;67.40;;;;;;5003232;28;20038;-83
2024/01/08 03:14:41;;;;;;;1.10;1.00;;;16.10;67.40;;;;;;5035470;28;20034;-83
2024/01/08 03:17:06;;;;;;;0.82;0.82;;;16.10;67.40;;;;;;5004799;28;20034;-82
2024/01/08 03:19:32;;;;;;;1.17;1.13;;;16.10;67.50;;;;;;4979651;28;20065;-83
2024/01/08 03:21:59;;;;;;;1.20;1.15;;;16.00;67.40;;;;;;5019110;28;20049;-83
2024/01/08 03:24:25;;;;;;;1.15;1.02;;;16.00;67.40;;;;;;5001423;28;20045;-83
2024/01/08 03:26:50;;;;;;;0.80;0.80;;;16.00;67.50;;;;;;4996391;28;20104;-83
2024/01/08 03:29:16;;;;;;;0.82;0.82;;;16.00;67.50;;;;;;4996935;28;20041;-83
2024/01/08 03:31:42;;;;;;;1.15;0.90;;;16.00;67.50;;;;;;5010418;28;20037;-84
2024/01/08 03:34:08;;;;;;;1.20;1.08;;;16.00;67.50;;;;;;5020873;28;20091;-84
2024/01/08 03:36:33;;;;;;;0.88;0.88;;;16.00;67.20;;;;;;5002190;28;20049;-89
2024/01/08 03:38:59;;;;;;;0.98;0.90;;;16.00;67.40;;;;;;5002294;28;20418;-86
2024/01/08 03:41:25;;;;;;;0.77;0.77;;;16.00;67.50;;;;;;5003263;28;20119;-83
2024/01/08 03:43:51;;;;;;;0.80;0.80;;;16.00;67.50;;;;;;5005401;28;20610;-85
2024/01/08 03:46:16;;;;;;;1.00;1.00;;;16.00;67.40;;;;;;5054664;28;20187;-84
2024/01/08 03:48:42;;;;;;;0.80;0.80;;;16.00;67.30;;;;;;5019445;28;20099;-86
2024/01/08 03:51:07;;;;;;;1.05;1.00;;;16.00;67.10;;;;;;5005229;28;20499;-85
2024/01/08 03:53:33;;;;;;;1.00;1.00;;;16.00;66.20;;;;;;5003438;28;20038;-86
2024/01/08 03:55:58;;;;;;;1.42;1.10;;;16.00;66.40;;;;;;5015355;28;20037;-84
2024/01/08 03:58:25;;;;;;;0.90;0.90;;;16.00;66.70;;;;;;5002723;28;20510;-85
2024/01/08 04:00:53;;;;;;;1.23;1.13;;;15.90;67.20;;;;;;4982451;28;20037;-86
2024/01/08 04:03:19;;;;;;;1.52;1.42;;;15.90;65.70;;;;;;4969114;28;20099;-84
2024/01/08 04:05:45;;;;;;;0.98;0.98;;;15.90;65.50;;;;;;4987323;28;20045;-85
2024/01/08 04:08:11;;;;;;;0.93;0.93;;;15.90;65.90;;;;;;4997729;28;20048;-86
2024/01/08 04:10:37;;;;;;;1.00;1.00;;;16.00;66.00;;;;;;5020014;28;20065;-85
2024/01/08 04:13:03;;;;;;;1.10;1.00;;;15.90;66.10;;;;;;5005611;28;20046;-86
2024/01/08 04:15:29;;;;;;;1.30;1.20;;;15.90;65.90;;;;;;5019365;28;20045;-85
2024/01/08 04:17:55;;;;;;;1.02;1.02;;;15.90;65.80;;;;;;5009389;28;20095;-86
2024/01/08 04:20:20;;;;;;;1.45;1.00;;;15.90;65.50;;;;;;4994856;28;20508;-85
2024/01/08 04:22:48;;;;;;;1.30;1.30;;;15.90;65.30;;;;;;5019611;28;20075;-86
2024/01/08 04:25:14;;;;;;;1.02;1.02;;;15.90;65.30;;;;;;5003114;28;20108;-85
2024/01/08 04:27:39;;;;;;;1.10;1.10;;;15.90;65.60;;;;;;5019704;28;20045;-85
2024/01/08 04:30:05;;;;;;;1.27;1.20;;;15.90;65.40;;;;;;5002094;28;20052;-85
2024/01/08 04:32:31;;;;;;;1.27;1.27;;;15.90;65.30;;;;;;5002399;28;20034;-85
2024/01/08 04:34:57;;;;;;;1.00;1.00;;;15.90;65.50;;;;;;4988063;28;20037;-84
2024/01/08 04:37:22;;;;;;;1.33;1.23;;;15.90;65.20;;;;;;5004729;28;20037;-84
2024/01/08 04:39:48;;;;;;;1.27;1.17;;;15.90;65.30;;;;;;4978450;28;22137;-86
2024/01/08 04:42:13;;;;;;;1.00;1.00;;;15.90;65.60;;;;;;4994915;28;20519;-86
2024/01/08 04:44:39;;;;;;;1.15;1.05;;;15.90;65.30;;;;;;5017186;28;20455;-86
2024/01/08 04:47:05;;;;;;;1.10;1.10;;;15.90;65.40;;;;;;5004210;28;20076;-85
2024/01/08 04:49:30;;;;;;;1.10;1.10;;;15.80;65.30;;;;;;4988794;28;20414;-86
2024/01/08 04:51:56;;;;;;;1.27;1.20;;;15.80;65.20;;;;;;4987526;28;20042;-85
2024/01/08 04:54:21;;;;;;;1.40;1.30;;;15.80;67.00;;;;;;5015973;28;20026;-88
2024/01/08 04:56:48;;;;;;;1.00;1.00;;;15.80;67.40;;;;;;5019514;28;20548;-85
2024/01/08 04:59:14;;;;;;;1.25;1.23;;;15.80;68.30;;;;;;5006125;28;20104;-86
2024/01/08 05:01:39;;;;;;;1.30;1.20;;;15.80;67.70;;;;;;5007370;28;20061;-85
2024/01/08 05:04:05;;;;;;;0.93;0.93;;;15.80;67.80;;;;;;5009440;28;20053;-85
2024/01/08 05:06:30;;;;;;;0.90;0.90;;;15.80;67.80;;;;;;5024746;28;20072;-85
2024/01/08 05:08:56;;;;;;;1.50;1.50;;;15.80;67.50;;;;;;5030890;28;20527;-85
2024/01/08 05:11:22;;;;;;;1.40;1.30;;;15.80;67.00;;;;;;5040313;28;20050;-86
2024/01/08 05:13:47;;;;;;;1.60;1.50;;;15.80;67.70;;;;;;5023830;28;20207;-87
2024/01/08 05:16:13;;;;;;;1.08;1.08;;;15.80;67.10;;;;;;5010951;28;20049;-88
2024/01/08 05:18:38;;;;;;;1.27;1.27;;;15.80;66.90;;;;;;4992801;28;20419;-88
2024/01/08 05:21:04;;;;;;;1.05;1.05;;;15.80;66.50;;;;;;5024042;28;20095;-87
2024/01/08 05:23:30;;;;;;;0.95;0.95;;;15.80;66.70;;;;;;5007742;28;20551;-88
2024/01/08 05:25:59;;;;;;;1.23;1.23;;;15.80;66.50;;;;;;5007596;28;20038;-88
2024/01/08 05:28:26;;;;;;;1.10;1.10;;;15.80;66.70;;;;;;5010511;28;20155;-88
2024/01/08 05:30:52;;;;;;;1.10;1.10;;;15.80;66.70;;;;;;4992061;28;20026;-84
2024/01/08 05:33:18;;;;;;;1.00;1.00;;;15.80;66.70;;;;;;4982688;28;20036;-84
2024/01/08 05:35:44;;;;;;;1.38;1.35;;;15.80;66.70;;;;;;5007205;28;20034;-84
2024/01/08 05:38:10;;;;;;;0.95;0.95;;;15.80;66.70;;;;;;4990488;28;20945;-88
2024/01/08 05:40:36;;;;;;;1.30;1.30;;;15.80;66.70;;;;;;4987239;28;20564;-88
2024/01/08 05:43:02;;;;;;;1.20;1.10;;;15.70;66.70;;;;;;5057939;28;20515;-89
2024/01/08 05:45:28;;;;;;;1.25;1.25;;;15.70;66.60;;;;;;5008314;28;20042;-89
2024/01/08 05:47:54;;;;;;;1.10;1.10;;;15.70;66.70;;;;;;5009975;28;20450;-88
2024/01/08 05:50:21;;;;;;;1.48;1.38;;;15.70;66.70;;;;;;5038960;28;20060;-89
2024/01/08 05:52:46;;;;;;;1.05;1.05;;;15.70;66.70;;;;;;5021553;28;20129;-90
2024/01/08 05:55:15;;;;;;;1.10;1.10;;;15.70;66.70;;;;;;5012444;28;20419;-88
2024/01/08 05:57:41;;;;;;;1.15;1.10;;;15.70;66.80;;;;;;5052252;28;20045;-88
2024/01/08 06:00:07;;;;;;;1.42;1.35;;;15.70;66.70;;;;;;4990461;28;20129;-86
2024/01/08 06:02:33;;;;;;;1.13;1.13;;;15.60;66.60;;;;;;5001189;28;20564;-83
2024/01/08 06:04:59;;;;;;;0.95;0.95;;;15.60;67.50;;;;;;5021508;28;20041;-86
2024/01/08 06:07:24;;;;;;;1.83;1.50;;;15.60;67.10;;;;;;4982092;28;20030;-87
2024/01/08 06:09:50;;;;;;;2.55;1.30;;;15.60;67.00;;;;;;5004425;28;20048;-86
2024/01/08 06:12:16;;;;;;;2.20;1.50;;;15.70;67.10;;;;;;4985466;28;20032;-88
2024/01/08 06:14:41;;;;;;;3.13;1.50;;;15.70;67.50;;;;;;4994382;28;20562;-82
2024/01/08 06:17:08;;;;;;;6.93;4.05;;;15.70;67.00;;;;;;5016022;28;20053;-81
2024/01/08 06:19:34;;;;;;;153.20;67.47;;;15.70;67.10;;;;;;5022089;28;20073;-83
2024/01/08 06:22:00;;;;;;;98.82;44.88;;;15.70;66.70;;;;;;5022335;28;20147;-86
2024/01/08 06:24:25;;;;;;;94.07;49.75;;;15.80;66.60;;;;;;5000716;28;20050;-83
2024/01/08 06:26:51;;;;;;;76.28;43.85;;;15.80;67.80;;;;;;4988512;28;20092;-84
2024/01/08 06:29:17;;;;;;;87.03;48.38;;;15.70;67.50;;;;;;5004630;28;20471;-88
2024/01/08 06:31:43;;;;;;;58.03;33.42;;;15.70;67.10;;;;;;5002563;28;20415;-88
2024/01/08 06:34:08;;;;;;;45.80;24.27;;;15.80;67.70;;;;;;5005895;28;20148;-86
2024/01/08 06:36:34;;;;;;;38.92;23.17;;;15.70;67.00;;;;;;5032792;28;20506;-83
2024/01/08 06:39:00;;;;;;;33.17;19.38;;;15.70;66.90;;;;;;5003140;28;20483;-83
2024/01/08 06:41:26;;;;;;;29.20;17.60;;;15.70;67.70;;;;;;5017186;28;20042;-83
2024/01/08 06:43:52;;;;;;;30.20;17.52;;;15.80;67.20;;;;;;5003408;28;20448;-87
2024/01/08 06:46:18;;;;;;;25.60;16.10;;;15.70;67.00;;;;;;5019901;28;20179;-87
2024/01/08 06:48:44;;;;;;;31.63;15.30;;;15.70;66.40;;;;;;5018164;28;21506;-87
2024/01/08 06:51:11;;;;;;;23.33;14.48;;;15.70;67.50;;;;;;5004645;28;20049;-87
2024/01/08 06:53:37;;;;;;;27.77;14.27;;;15.70;67.00;;;;;;5018694;28;20044;-87
2024/01/08 06:56:02;;;;;;;25.65;14.90;;;15.60;67.30;;;;;;5004159;28;20046;-87
2024/01/08 06:58:28;;;;;;;22.63;14.45;;;15.60;67.70;;;;;;5020684;28;20499;-86
2024/01/08 07:00:54;;;;;;;22.95;14.40;;;15.60;67.40;;;;;;4990310;28;20504;-87
2024/01/08 07:03:19;;;;;;;20.75;13.57;;;15.60;67.40;;;;;;5019328;28;20519;-87
2024/01/08 07:05:46;;;;;;;25.85;13.50;;;15.60;67.60;;;;;;4997874;28;20046;-87
2024/01/08 07:08:12;;;;;;;26.83;14.10;;;15.50;67.10;;;;;;5021887;28;20033;-86
2024/01/08 07:10:37;;;;;;;20.52;13.63;;;15.50;67.20;;;;;;5024372;28;20045;-87
2024/01/08 07:13:03;;;;;;;19.75;13.57;;;15.60;67.80;;;;;;5023712;28;20041;-86
2024/01/08 07:15:46;;;;;;;19.65;13.07;;;15.60;67.20;;;;;;5015242;28;20072;-85
2024/01/08 07:18:12;;;;;;;19.13;12.25;;;15.70;67.50;;;;;;5001919;28;20120;-84
2024/01/08 07:20:38;;;;;;;20.50;12.02;;;15.80;67.40;;;;;;5017266;28;20144;-84
2024/01/08 07:23:05;;;;;;;19.10;13.07;;;15.80;67.50;;;;;;5020355;28;20528;-85
2024/01/08 07:25:30;;;;;;;17.40;11.88;;;15.80;67.50;;;;;;5023210;28;20404;-83
2024/01/08 07:27:56;;;;;;;19.90;12.00;;;15.80;67.50;;;;;;5007290;28;20048;-84
2024/01/08 07:30:22;;;;;;;17.02;11.65;;;15.80;67.40;;;;;;4994561;28;20045;-83
2024/01/08 07:32:48;;;;;;;16.58;11.43;;;15.80;67.40;;;;;;4987521;28;20507;-85
2024/01/08 07:35:14;;;;;;;15.95;11.27;;;15.80;67.60;;;;;;5013022;28;20060;-84
2024/01/08 07:37:39;;;;;;;18.05;10.80;;;15.90;67.20;;;;;;5030635;28;20045;-85
2024/01/08 07:40:06;;;;;;;15.65;10.82;;;15.90;67.20;;;;;;5022070;28;20052;-83
2024/01/08 07:42:33;;;;;;;15.35;10.32;;;15.90;67.20;;;;;;5022150;28;20107;-85
2024/01/08 07:44:59;;;;;;;16.65;10.52;;;15.90;67.20;;;;;;4987039;28;20045;-84
2024/01/08 07:47:26;;;;;;;14.32;11.07;;;15.90;67.00;;;;;;4991568;28;20058;-87
2024/01/08 07:49:51;;;;;;;14.20;10.32;;;16.00;66.90;;;;;;5007689;28;20044;-87
2024/01/08 07:52:17;;;;;;;15.55;10.23;;;15.90;67.60;;;;;;4989734;28;20124;-89
2024/01/08 07:54:43;;;;;;;18.08;10.38;;;16.00;67.30;;;;;;5023159;28;20061;-87
2024/01/08 07:57:08;;;;;;;13.85;10.35;;;16.00;66.90;;;;;;4988780;28;20037;-86
2024/01/08 07:59:34;;;;;;;13.77;10.48;;;16.00;66.90;;;;;;5000997;28;20065;-88
2024/01/08 08:01:59;;;;;;;15.77;11.93;;;16.00;66.70;;;;;;5000359;28;20134;-87
2024/01/08 08:04:25;;;;;;;15.48;11.13;;;15.90;66.70;;;;;;5003638;28;20037;-89
2024/01/08 08:06:50;;;;;;;18.05;11.95;;;16.00;66.70;;;;;;5024905;28;20072;-85
2024/01/08 08:09:16;;;;;;;18.75;12.50;;;15.90;66.70;;;;;;4986393;28;20196;-88
2024/01/08 08:11:41;;;;;;;19.63;12.73;;;15.90;66.70;;;;;;4988186;28;20097;-87
2024/01/08 08:14:07;;;;;;;17.75;12.05;;;16.00;66.70;;;;;;4986351;28;20046;-85
2024/01/08 08:16:32;;;;;;;14.82;11.65;;;16.00;66.60;;;;;;4987002;28;20145;-88
2024/01/08 08:18:58;;;;;;;18.17;12.43;;;16.00;66.70;;;;;;5023303;28;20057;-86
2024/01/08 08:21:24;;;;;;;16.90;11.70;;;16.10;66.30;;;;;;4994170;28;20439;-91
2024/01/08 08:23:50;;;;;;;14.45;11.15;;;16.00;65.90;;;;;;5016880;28;20044;-88
2024/01/08 08:26:16;;;;;;;17.90;10.82;;;16.00;65.70;;;;;;4997528;28;20041;-86
2024/01/08 08:28:42;;;;;;;15.25;10.52;;;15.90;64.50;;;;;;4988763;28;20428;-85
2024/01/08 08:31:08;;;;;;;15.02;9.75;;;15.90;63.40;;;;;;5015636;28;20590;-84
2024/01/08 08:33:33;;;;;;;14.43;9.65;;;15.80;63.20;;;;;;4985371;28;20516;-86
2024/01/08 08:35:59;;;;;;;15.40;10.20;;;15.90;63.40;;;;;;4991451;28;20121;-87
2024/01/08 08:38:24;;;;;;;14.23;10.27;;;15.90;65.20;;;;;;5007330;28;20054;-87
2024/01/08 08:40:50;;;;;;;16.85;9.43;;;16.10;64.80;;;;;;4991207;28;20046;-85
2024/01/08 08:43:16;;;;;;;14.05;9.93;;;16.10;64.20;;;;;;5029190;28;20128;-90
2024/01/08 08:45:42;;;;;;;12.75;9.20;;;16.10;63.70;;;;;;4977071;28;20119;-87
2024/01/08 08:48:09;;;;;;;14.98;10.75;;;16.20;64.30;;;;;;5020365;28;20463;-85
2024/01/08 08:50:34;;;;;;;13.18;9.27;;;16.30;63.80;;;;;;5022061;28;20100;-87
2024/01/08 08:53:00;;;;;;;9.57;7.90;;;16.20;62.30;;;;;;5025038;28;20072;-88
2024/01/08 08:55:25;;;;;;;9.27;8.15;;;16.20;60.90;;;;;;4995972;28;20038;-88
2024/01/08 08:57:51;;;;;;;12.73;7.85;;;16.20;61.20;;;;;;4973194;28;20181;-89
2024/01/08 09:00:17;;;;;;;11.07;8.40;;;16.40;62.60;;;;;;4993266;28;20046;-89
2024/01/08 09:02:43;;;;;;;12.93;9.65;;;16.50;62.70;;;;;;4989947;28;20104;-88
2024/01/08 09:05:08;;;;;;;11.48;8.48;;;16.50;62.50;;;;;;5008431;28;20449;-88
2024/01/08 09:07:34;;;;;;;9.00;7.40;;;16.60;62.20;;;;;;5007661;28;20041;-88
2024/01/08 09:10:00;;;;;;;9.80;7.65;;;16.60;62.00;;;;;;5027191;28;20044;-86
2024/01/08 09:12:26;;;;;;;14.43;7.90;;;16.60;62.10;;;;;;5005212;28;20064;-89
2024/01/08 09:14:52;;;;;;;10.23;7.97;;;16.60;61.30;;;;;;4993609;28;20045;-86
2024/01/08 09:17:18;;;;;;;10.30;7.68;;;16.50;60.80;;;;;;4992135;28;20037;-86
2024/01/08 09:19:43;;;;;;;9.75;7.95;;;16.40;60.50;;;;;;5024148;28;20047;-85
2024/01/08 09:22:09;;;;;;;12.75;7.30;;;16.50;60.10;;;;;;5058879;28;20038;-87
2024/01/08 09:24:35;;;;;;;7.45;6.75;;;16.40;60.40;;;;;;4992749;28;20048;-86
2024/01/08 09:27:01;;;;;;;7.97;6.70;;;16.50;61.20;;;;;;5000332;28;20494;-88
2024/01/08 09:29:26;;;;;;;7.28;6.57;;;16.60;61.70;;;;;;5009813;28;20061;-86
2024/01/08 09:31:53;;;;;;;7.55;6.07;;;16.70;61.50;;;;;;5001201;28;20068;-88
2024/01/08 09:34:18;;;;;;;7.57;6.30;;;16.70;60.60;;;;;;5021314;28;20038;-87
2024/01/08 09:36:44;;;;;;;7.22;6.20;;;16.60;60.20;;;;;;4988893;28;20037;-87
2024/01/08 09:39:11;;;;;;;14.90;5.88;;;16.70;60.50;;;;;;5015929;28;20474;-88
2024/01/08 09:41:37;;;;;;;10.00;5.32;;;16.80;60.50;;;;;;5010366;28;20388;-88
2024/01/08 09:44:03;;;;;;;8.75;5.75;;;16.90;61.10;;;;;;5020544;28;20049;-88
2024/01/08 09:46:31;;;;;;;6.30;5.47;;;16.90;61.40;;;;;;5010637;28;20055;-88
2024/01/08 09:48:57;;;;;;;6.13;5.57;;;17.00;61.20;;;;;;5040299;28;20049;-90
2024/01/08 09:51:23;;;;;;;6.60;5.60;;;16.90;60.70;;;;;;5000122;28;20053;-89
2024/01/08 09:53:49;;;;;;;7.93;5.60;;;16.90;60.20;;;;;;5003755;28;20111;-88
2024/01/08 09:56:14;;;;;;;6.22;4.78;;;16.90;60.40;;;;;;5025239;28;20053;-89
2024/01/08 09:58:41;;;;;;;11.73;5.68;;;17.00;60.80;;;;;;4976299;28;20451;-90
2024/01/08 10:01:07;;;;;;;7.88;4.70;;;17.00;60.40;;;;;;5003151;28;20038;-90
2024/01/08 10:03:33;;;;;;;10.63;4.93;;;17.00;60.50;;;;;;5004441;28;20049;-89
2024/01/08 10:05:58;;;;;;;8.30;4.63;;;17.00;60.10;;;;;;5014216;28;20128;-89
2024/01/08 10:08:24;;;;;;;9.65;4.65;;;17.00;60.30;;;;;;4997320;28;20133;-84
2024/01/08 10:10:51;;;;;;;10.23;5.07;;;17.00;60.50;;;;;;4971947;28;20138;-87
2024/01/08 10:13:17;;;;;;;9.50;4.63;;;17.10;60.70;;;;;;4998560;28;20116;-87
2024/01/08 10:15:47;;;;;;;5.32;4.45;;;17.20;60.60;;;;;;5021097;28;20563;-86
2024/01/08 10:18:15;;;;;;;7.75;4.78;;;17.10;60.70;;;;;;4995450;28;20042;-84
2024/01/08 10:20:42;;;;;;;10.60;3.85;;;17.20;60.40;;;;;;5034860;28;20044;-86
2024/01/08 10:23:08;;;;;;;10.85;4.82;;;17.20;60.80;;;;;;5021115;28;20531;-86
2024/01/08 10:25:38;;;;;;;6.72;4.97;;;17.20;60.50;;;;;;5009593;28;20499;-86
2024/01/08 10:28:09;;;;;;;10.52;5.20;;;17.20;60.70;;;;;;5008929;28;20558;-85
2024/01/08 10:30:35;;;;;;;6.18;4.47;;;17.30;60.00;;;;;;5009808;28;20045;-85
2024/01/08 10:33:01;;;;;;;6.10;4.13;;;17.10;60.20;;;;;;5022158;28;20034;-85
2024/01/08 10:35:28;;;;;;;10.35;4.10;;;17.20;59.90;;;;;;5021090;28;20099;-85
2024/01/08 10:37:54;;;;;;;4.97;3.92;;;17.10;57.80;;;;;;5006867;28;20068;-86
2024/01/08 10:40:20;;;;;;;4.80;3.95;;;17.30;59.20;;;;;;5021199;28;20157;-89
2024/01/08 10:42:45;;;;;;;11.25;3.80;;;17.40;58.80;;;;;;5009884;28;20136;-85
2024/01/08 10:45:12;;;;;;;3.83;3.40;;;17.50;59.00;;;;;;5004330;28;20043;-88
2024/01/08 10:47:41;;;;;;;5.43;3.42;;;17.50;58.50;;;;;;4991011;28;20033;-87
2024/01/08 10:50:07;;;;;;;3.95;3.25;;;17.60;58.90;;;;;;4999718;28;20038;-86
2024/01/08 10:52:33;;;;;;;4.57;3.40;;;17.60;58.70;;;;;;5005313;28;20549;-88
2024/01/08 10:55:00;;;;;;;4.63;3.55;;;17.70;58.70;;;;;;5017364;28;20052;-87
2024/01/08 10:57:36;;;;;;;4.05;3.70;;;17.90;58.60;;;;;;5002990;28;20486;-87
2024/01/08 11:00:06;;;;;;;4.80;3.33;;;17.90;58.50;;;;;;4994528;28;20056;-88
2024/01/08 11:02:37;;;;;;;3.53;3.13;;;17.90;58.40;;;;;;4980802;28;20062;-87
2024/01/08 11:05:05;;;;;;;16.27;3.20;;;18.00;58.00;;;;;;4988229;28;20066;-86
2024/01/08 11:07:33;;;;;;;4.95;3.03;;;18.00;58.50;;;;;;5003285;28;20027;-86
2024/01/08 11:10:06;;;;;;;3.20;2.97;;;18.10;58.50;;;;;;5014611;28;20042;-87
2024/01/08 11:12:34;;;;;;;5.60;3.35;;;18.10;58.40;;;;;;4987254;28;21496;-82
2024/01/08 11:15:04;;;;;;;4.47;3.03;;;18.10;58.10;;;;;;4989193;28;20034;-84
2024/01/08 11:17:30;;;;;;;4.80;3.10;;;18.20;58.30;;;;;;4995108;28;20578;-84
2024/01/08 11:19:57;;;;;;;5.15;3.13;;;18.20;58.40;;;;;;5019552;28;20813;-82
2024/01/08 11:22:23;;;;;;;3.05;2.72;;;18.20;58.30;;;;;;4987545;28;20046;-84
2024/01/08 11:24:49;;;;;;;6.13;2.75;;;18.30;58.30;;;;;;5001833;28;20513;-86
2024/01/08 11:27:20;;;;;;;4.55;3.08;;;18.30;58.30;;;;;;5003141;28;20051;-83
2024/01/08 11:30:00;;;;;;;4.38;3.50;;;18.40;58.30;;;;;;5001523;28;20048;-84
2024/01/08 11:32:32;;;;;;;6.88;4.68;;;18.50;58.30;;;;;;5020033;28;20037;-84
2024/01/08 11:35:03;;;;;;;9.00;5.90;;;18.50;58.60;;;;;;5014863;28;20037;-84
2024/01/08 11:37:34;;;;;;;8.00;6.15;;;18.50;58.70;;;;;;5028111;28;20037;-85
2024/01/08 11:40:19;;;;;;;7.65;6.40;;;18.60;58.70;;;;;;5019274;28;20043;-85
2024/01/08 11:42:45;;;;;;;11.00;6.63;;;18.60;58.90;;;;;;5012691;28;20038;-86
2024/01/08 11:45:11;;;;;;;10.20;6.28;;;18.60;58.80;;;;;;5014806;28;20472;-87
2024/01/08 11:47:37;;;;;;;10.40;6.25;;;18.60;59.00;;;;;;5014776;28;20124;-90
2024/01/08 11:50:04;;;;;;;14.25;6.55;;;18.70;59.10;;;;;;5010139;28;20055;-89
2024/01/08 11:52:30;;;;;;;11.77;6.72;;;18.70;59.10;;;;;;5009273;28;20045;-89
2024/01/08 11:54:56;;;;;;;9.27;5.80;;;18.70;58.90;;;;;;5018768;28;20056;-89
2024/01/08 11:57:22;;;;;;;7.93;6.13;;;18.70;58.70;;;;;;4655081;28;9999710;-89
2024/01/08 11:59:48;;;;;;;9.38;6.50;;;18.70;58.80;;;;;;4987597;28;20318;-90
2024/01/08 12:02:27;;;;;;;8.57;6.80;;;18.70;58.70;;;;;;5006418;28;20049;-88
2024/01/08 12:04:56;;;;;;;8.25;5.95;;;18.70;58.70;;;;;;5015598;28;20587;-89
2024/01/08 12:07:22;;;;;;;12.93;6.05;;;18.70;58.10;;;;;;4674481;28;10000097;-86
2024/01/08 12:09:48;;;;;;;9.07;5.45;;;18.80;57.10;;;;;;4998648;28;20144;-88
2024/01/08 12:12:16;;;;;;;10.05;5.85;;;18.90;57.70;;;;;;4987397;28;20535;-88
2024/01/08 12:14:41;;;;;;;7.40;5.40;;;19.00;58.00;;;;;;5004134;28;20120;-90
2024/01/08 12:17:07;;;;;;;7.40;5.57;;;19.10;58.10;;;;;;4989927;28;20140;-88
2024/01/08 12:19:40;;;;;;;10.98;5.38;;;19.10;58.00;;;;;;4993396;28;20045;-88
2024/01/08 12:22:06;;;;;;;7.47;5.38;;;19.20;57.90;;;;;;5018845;28;20415;-88
2024/01/08 12:24:35;;;;;;;7.85;5.20;;;19.20;57.90;;;;;;5013882;28;20531;-89
2024/01/08 12:27:04;;;;;;;6.13;5.03;;;19.20;57.80;;;;;;4991094;28;20626;-90
2024/01/08 12:29:30;;;;;;;7.85;5.38;;;19.20;57.70;;;;;;4989051;28;20041;-86
2024/01/08 12:32:03;;;;;;;6.75;4.82;;;19.30;57.70;;;;;;4960097;28;20076;-87
2024/01/08 12:34:29;;;;;;;7.00;5.38;;;19.30;57.70;;;;;;4964017;28;20034;-84
2024/01/08 12:36:55;;;;;;;6.10;4.85;;;19.30;57.80;;;;;;4979889;28;20073;-83